Main page
METAR-TAF:

METAR-TAF

Airports :

San Fernando, Argentina

San Fernando Airport

latitude: 34-27-11S, longitude: 058-35-23W, elevation: 3 m

Current weather observation

The report was made 1 hour and 11 minutes ago, at 07:00 UTC
Wind 6 kt from the East
Temperature 23°C
Humidity 78%
Pressure 1010 hPa
Visibility 10 km or more
Broken clouds at a height of 1500 ft

METAR: SADF 040700Z 09006KT 9999 BKN015 23/19 Q1010

Time: 05:11 (08:11 UTC)

Forecast

The report was made 3 hours and 11 minutes ago, at 05:00 UTC
Forecast valid from 04 at 06 UTC to 05 at 06 UTC
Wind 5 kt from the East/Southeast
Visibility 10 km or more
no clouds below 1500 m and no cumulonimbus
Temporary
from 04 at 07 UTC to 04 at 09 UTC
Visibility: 5000 m
Scattered clouds at a height of 1000 ft
mist
Becoming
from 04 at 11 UTC to 04 at 13 UTC
Visibility 10 km or more
Broken clouds at a height of 2000 ft

TAF: SADF 040500Z 0406/0506 11005KT CAVOK TX32/0418Z TN21/0409Z TEMPO 0407/0409 5000 BR SCT010 BECMG 0411/0413 9999 BKN020

Weather observations and forecasts of more than 4000 airports (METAR and TAF reports).

The available stations are represented by yellow and red dots on the map.

Hover mouse over dot to see the name of the station.

Then click to see weather observations and forecasts.

To change the map : click on the green buttons with a black cross to zoom in, on the green button with a dash to zoom out, or on the green arrows for adjacent maps.


METAR-TAF: